Time;durP1;ratioP1;P1;durP2;ratioP2;P2;SDS_P1;SDS_P2;PMS_P1;PMS_P2;Temp;Humidity;BMP_temperature;BMP_pressure;BME280_temperature;BME280_humidity;BME280_pressure;Samples;Min_cycle;Max_cycle;Signal;HPM_P1;HPM_P2
2021/08/28 00:01:37;;;;;;;10.23;4.30;;;16.60;99.90;;;;;;4851888;29;20471;-78
2021/08/28 00:04:03;;;;;;;13.52;5.68;;;16.60;99.90;;;;;;4852158;29;20088;-78
2021/08/28 00:06:29;;;;;;;18.27;4.78;;;16.60;99.90;;;;;;4869502;29;20089;-78
2021/08/28 00:08:55;;;;;;;12.75;5.07;;;16.60;99.90;;;;;;4832393;29;20057;-81
2021/08/28 00:11:21;;;;;;;14.35;4.63;;;16.60;99.90;;;;;;4853821;29;20081;-81
2021/08/28 00:13:47;;;;;;;15.13;4.60;;;16.50;99.90;;;;;;4855681;29;20084;-81
2021/08/28 00:16:13;;;;;;;15.60;4.68;;;16.50;99.90;;;;;;4860072;29;20073;-81
2021/08/28 00:18:39;;;;;;;16.85;4.97;;;16.30;99.90;;;;;;4850844;29;20042;-78
2021/08/28 00:21:06;;;;;;;13.50;4.65;;;16.50;99.90;;;;;;4854229;29;20046;-76
2021/08/28 00:23:35;;;;;;;13.23;4.85;;;16.50;99.90;;;;;;4855552;29;20113;-78
2021/08/28 00:26:00;;;;;;;17.05;5.03;;;16.50;99.90;;;;;;4856540;29;20076;-79
2021/08/28 00:28:26;;;;;;;13.95;4.97;;;16.50;99.90;;;;;;4846084;29;20042;-79
2021/08/28 00:30:52;;;;;;;16.83;5.85;;;16.50;99.90;;;;;;4839280;29;20123;-79
2021/08/28 00:33:18;;;;;;;16.75;5.10;;;16.50;99.90;;;;;;4851719;29;20081;-79
2021/08/28 00:35:44;;;;;;;11.13;4.70;;;16.50;99.90;;;;;;4858296;29;20048;-79
2021/08/28 00:38:11;;;;;;;14.68;5.40;;;16.50;99.90;;;;;;4869390;29;20042;-79
2021/08/28 00:40:38;;;;;;;15.20;4.72;;;16.50;99.90;;;;;;4856002;29;20170;-79
2021/08/28 00:43:04;;;;;;;19.98;5.40;;;16.50;99.90;;;;;;4854411;29;20394;-78
2021/08/28 00:45:32;;;;;;;17.20;5.05;;;16.50;99.90;;;;;;4832439;29;20038;-78
2021/08/28 00:48:12;;;;;;;13.38;4.63;;;16.50;99.90;;;;;;4854468;29;20105;-78
2021/08/28 00:50:41;;;;;;;15.32;4.60;;;16.40;99.90;;;;;;4849543;29;20128;-78
2021/08/28 00:53:09;;;;;;;11.85;4.43;;;16.40;99.90;;;;;;4857939;29;20042;-78
2021/08/28 00:55:39;;;;;;;12.63;4.45;;;16.70;99.90;;;;;;4858514;29;20045;-78
2021/08/28 00:58:05;;;;;;;10.30;4.90;;;16.40;99.90;;;;;;4864009;29;20363;-78
2021/08/28 01:00:37;;;;;;;11.52;4.38;;;16.40;99.90;;;;;;4857890;29;20037;-78
2021/08/28 01:03:06;;;;;;;11.38;4.40;;;16.40;99.90;;;;;;4841193;29;20102;-78
2021/08/28 01:05:47;;;;;;;9.82;4.30;;;16.30;99.90;;;;;;4851724;29;20038;-78
2021/08/28 01:08:35;;;;;;;8.85;3.90;;;16.40;99.90;;;;;;4842473;29;20422;-78
2021/08/28 01:11:22;;;;;;;13.35;3.75;;;16.30;99.90;;;;;;4837969;29;20320;-78
2021/08/28 01:14:16;;;;;;;13.77;4.47;;;16.10;99.90;;;;;;4857872;29;20467;-78
2021/08/28 01:16:47;;;;;;;10.80;3.92;;;16.30;99.90;;;;;;4859248;29;20041;-78
2021/08/28 01:19:30;;;;;;;12.70;4.03;;;16.20;99.90;;;;;;4857345;29;20046;-78
2021/08/28 01:21:57;;;;;;;9.88;4.22;;;16.20;99.90;;;;;;4842766;29;20057;-78
2021/08/28 01:24:23;;;;;;;7.50;3.80;;;16.20;99.90;;;;;;4858117;29;20124;-78
2021/08/28 01:27:01;;;;;;;13.32;4.40;;;16.20;99.90;;;;;;4852687;29;20106;-78
2021/08/28 01:29:31;;;;;;;13.05;4.18;;;16.20;99.90;;;;;;4818466;29;20048;-77
2021/08/28 01:31:59;;;;;;;9.07;3.80;;;16.20;99.90;;;;;;4861139;29;20394;-78
2021/08/28 01:34:26;;;;;;;12.00;4.15;;;16.20;99.90;;;;;;4854126;29;20503;-78
2021/08/28 01:36:53;;;;;;;13.43;4.20;;;16.20;99.90;;;;;;4840642;29;20387;-77
2021/08/28 01:39:19;;;;;;;14.15;4.00;;;16.20;99.90;;;;;;4819369;29;20458;-78
2021/08/28 01:41:51;;;;;;;13.68;4.07;;;16.20;99.90;;;;;;4831023;29;20041;-78
2021/08/28 01:44:24;;;;;;;8.98;4.10;;;16.20;99.90;;;;;;4830572;29;20122;-77
2021/08/28 01:46:52;;;;;;;14.02;4.30;;;16.30;99.90;;;;;;4834673;29;20113;-78
2021/08/28 01:49:19;;;;;;;18.48;4.80;;;16.20;99.90;;;;;;4828516;29;20049;-78
2021/08/28 01:51:46;;;;;;;10.52;4.13;;;16.20;99.90;;;;;;4860093;29;20052;-78
2021/08/28 01:54:12;;;;;;;13.25;3.80;;;16.30;99.90;;;;;;4860024;29;20128;-78
2021/08/28 01:56:38;;;;;;;14.65;4.05;;;16.20;99.90;;;;;;4821938;29;20436;-78
2021/08/28 01:59:04;;;;;;;12.98;3.95;;;16.10;99.90;;;;;;4856151;29;20133;-79
2021/08/28 02:01:30;;;;;;;13.43;4.20;;;16.20;99.90;;;;;;4828505;29;20077;-78
2021/08/28 02:03:56;;;;;;;13.65;4.18;;;16.30;99.90;;;;;;4859188;29;20095;-79
2021/08/28 02:06:37;;;;;;;13.98;4.70;;;16.20;99.90;;;;;;4826871;29;20054;-79
2021/08/28 02:09:37;;;;;;;8.55;3.90;;;16.10;99.90;;;;;;4857534;29;20505;-79
2021/08/28 02:12:20;;;;;;;11.65;4.13;;;16.20;99.90;;;;;;4825418;29;20138;-78
2021/08/28 02:15:05;;;;;;;17.90;4.40;;;16.20;99.90;;;;;;4846559;29;20058;-78
2021/08/28 02:17:31;;;;;;;16.90;4.40;;;16.20;99.90;;;;;;4842482;29;20049;-79
2021/08/28 02:20:01;;;;;;;11.98;4.13;;;16.20;99.90;;;;;;4833122;29;20709;-78
2021/08/28 02:22:31;;;;;;;12.25;4.00;;;16.20;99.90;;;;;;4862540;29;20406;-78
2021/08/28 02:25:03;;;;;;;12.88;4.47;;;16.20;99.90;;;;;;4843957;29;20150;-78
2021/08/28 02:27:34;;;;;;;15.43;4.63;;;16.20;99.90;;;;;;4828671;29;20133;-78
2021/08/28 02:30:09;;;;;;;16.13;4.65;;;16.20;99.90;;;;;;4862138;29;20101;-78
2021/08/28 02:32:35;;;;;;;15.38;4.55;;;16.20;99.90;;;;;;4841100;29;20233;-78
2021/08/28 02:35:03;;;;;;;15.90;4.82;;;16.20;99.90;;;;;;4844602;29;20038;-78
2021/08/28 02:37:33;;;;;;;18.17;4.60;;;16.20;99.90;;;;;;4857401;29;20073;-78
2021/08/28 02:40:02;;;;;;;15.20;5.03;;;16.20;99.90;;;;;;4850019;29;20128;-78
2021/08/28 02:42:28;;;;;;;13.05;5.13;;;16.20;99.90;;;;;;4842339;29;20124;-78
2021/08/28 02:44:54;;;;;;;16.83;5.13;;;16.20;99.90;;;;;;4849111;29;20106;-78
2021/08/28 02:47:24;;;;;;;15.18;4.97;;;16.20;99.90;;;;;;4846969;29;20041;-78
2021/08/28 02:49:51;;;;;;;17.77;5.60;;;16.20;99.90;;;;;;4854205;29;20455;-78
2021/08/28 02:52:20;;;;;;;12.38;4.80;;;16.20;99.90;;;;;;4848037;29;20097;-78
2021/08/28 02:54:47;;;;;;;11.00;5.25;;;16.10;99.90;;;;;;4861281;29;20520;-78
2021/08/28 02:57:14;;;;;;;15.20;5.53;;;16.20;99.90;;;;;;4859309;29;20510;-78
2021/08/28 02:59:41;;;;;;;16.92;6.25;;;16.20;99.90;;;;;;4843616;29;20050;-78
2021/08/28 03:02:08;;;;;;;18.02;6.20;;;16.20;99.90;;;;;;4829068;29;20046;-78
2021/08/28 03:04:35;;;;;;;17.67;5.90;;;16.20;99.90;;;;;;4854025;29;20160;-78
2021/08/28 03:07:02;;;;;;;26.85;6.05;;;16.20;99.90;;;;;;4841406;29;20109;-78
2021/08/28 03:09:28;;;;;;;14.57;5.60;;;16.20;99.90;;;;;;4859540;29;20120;-78
2021/08/28 03:11:57;;;;;;;15.82;6.25;;;16.20;99.90;;;;;;4846114;29;20097;-77
2021/08/28 03:14:24;;;;;;;13.82;5.65;;;16.20;99.90;;;;;;4836854;29;20045;-78
2021/08/28 03:16:52;;;;;;;16.50;5.82;;;16.20;99.90;;;;;;4861668;29;20132;-78
2021/08/28 03:19:23;;;;;;;13.02;5.72;;;16.20;99.90;;;;;;4830441;29;20402;-78
2021/08/28 03:21:50;;;;;;;17.83;6.55;;;16.20;99.90;;;;;;4845991;29;20053;-78
2021/08/28 03:24:20;;;;;;;18.08;6.22;;;16.20;99.90;;;;;;4849231;29;20084;-78
2021/08/28 03:26:47;;;;;;;14.48;6.03;;;16.10;99.90;;;;;;4857163;29;20056;-78
2021/08/28 03:29:14;;;;;;;16.55;5.80;;;16.10;99.90;;;;;;4817271;29;20098;-78
2021/08/28 03:31:40;;;;;;;13.65;5.60;;;16.10;99.90;;;;;;4838041;29;20050;-78
2021/08/28 03:34:08;;;;;;;10.63;5.03;;;16.10;99.90;;;;;;4838095;29;20049;-78
2021/08/28 03:36:36;;;;;;;14.00;5.60;;;16.00;99.90;;;;;;4818356;29;20053;-78
2021/08/28 03:39:02;;;;;;;15.60;5.93;;;16.00;99.90;;;;;;4843490;29;20517;-78
2021/08/28 03:41:28;;;;;;;13.68;6.07;;;16.00;99.90;;;;;;4827698;29;20033;-78
2021/08/28 03:43:54;;;;;;;13.00;6.03;;;16.00;99.90;;;;;;4831363;29;20050;-78
2021/08/28 03:46:20;;;;;;;15.40;5.88;;;15.90;99.90;;;;;;4815194;29;20058;-77
2021/08/28 03:48:48;;;;;;;13.05;5.47;;;16.10;99.90;;;;;;4837823;29;20056;-78
2021/08/28 03:51:14;;;;;;;14.85;5.55;;;16.00;99.90;;;;;;4829590;29;20128;-78
2021/08/28 03:53:40;;;;;;;16.02;5.72;;;16.00;99.90;;;;;;4839417;29;20198;-78
2021/08/28 03:56:06;;;;;;;17.63;6.10;;;16.00;99.90;;;;;;4843718;29;20065;-78
2021/08/28 03:58:33;;;;;;;16.50;5.78;;;16.00;99.90;;;;;;4849882;29;20048;-78
2021/08/28 04:00:58;;;;;;;21.52;6.07;;;16.00;99.90;;;;;;4827024;29;20046;-77
2021/08/28 04:03:24;;;;;;;16.60;6.38;;;15.90;99.90;;;;;;4839810;29;20117;-78
2021/08/28 04:05:50;;;;;;;15.07;6.20;;;16.00;99.90;;;;;;4814616;29;20380;-78
2021/08/28 04:08:15;;;;;;;16.02;6.05;;;15.90;99.90;;;;;;4849078;29;20085;-77
2021/08/28 04:10:41;;;;;;;16.08;6.13;;;15.90;99.90;;;;;;4828383;29;20094;-77
2021/08/28 04:13:07;;;;;;;16.38;6.40;;;15.90;99.90;;;;;;4835656;29;20050;-77
2021/08/28 04:15:33;;;;;;;16.58;5.93;;;15.90;99.90;;;;;;4844857;29;20096;-77
2021/08/28 04:17:59;;;;;;;19.92;6.07;;;15.90;99.90;;;;;;4843757;29;20033;-77
2021/08/28 04:20:25;;;;;;;18.80;6.20;;;15.90;99.90;;;;;;4866430;29;20482;-77
2021/08/28 04:22:50;;;;;;;16.23;6.32;;;15.80;99.90;;;;;;4841587;29;20141;-77
2021/08/28 04:25:16;;;;;;;17.58;6.13;;;16.00;99.90;;;;;;4857401;29;20037;-77
2021/08/28 04:27:42;;;;;;;18.17;6.30;;;16.00;99.90;;;;;;4857833;29;20046;-77
2021/08/28 04:30:08;;;;;;;17.50;6.18;;;16.00;99.90;;;;;;4849214;29;20489;-78
2021/08/28 04:32:34;;;;;;;13.85;6.25;;;16.30;99.90;;;;;;4855181;29;20372;-78
2021/08/28 04:35:00;;;;;;;11.35;5.43;;;16.00;99.90;;;;;;4837164;29;20057;-78
2021/08/28 04:37:26;;;;;;;20.90;6.15;;;15.90;99.90;;;;;;4848086;29;20137;-78
2021/08/28 04:39:52;;;;;;;15.82;6.68;;;15.90;99.90;;;;;;4842086;29;20046;-77
2021/08/28 04:42:18;;;;;;;23.88;6.43;;;15.90;99.90;;;;;;4850869;29;20076;-77
2021/08/28 04:44:44;;;;;;;15.18;5.60;;;15.80;99.90;;;;;;4860515;29;20097;-77
2021/08/28 04:47:09;;;;;;;18.05;5.75;;;15.90;99.90;;;;;;4856654;29;20053;-77
2021/08/28 04:49:38;;;;;;;17.00;5.72;;;15.80;99.90;;;;;;4858313;29;20056;-77
2021/08/28 04:52:05;;;;;;;15.80;5.88;;;15.80;99.90;;;;;;4844013;29;20045;-77
2021/08/28 04:54:31;;;;;;;14.38;5.90;;;15.80;99.90;;;;;;4859628;29;20491;-78
2021/08/28 04:56:57;;;;;;;16.98;5.75;;;15.80;99.90;;;;;;4857322;29;20128;-77
2021/08/28 04:59:23;;;;;;;24.33;5.78;;;15.90;99.90;;;;;;4850777;29;20470;-77
2021/08/28 05:01:52;;;;;;;19.40;5.97;;;15.90;99.90;;;;;;4853940;29;20125;-78
2021/08/28 05:04:17;;;;;;;15.60;6.03;;;15.90;99.90;;;;;;4840122;29;20477;-78
2021/08/28 05:06:43;;;;;;;16.13;5.40;;;15.90;99.90;;;;;;4842182;29;20056;-77
2021/08/28 05:09:09;;;;;;;17.60;6.03;;;16.00;99.90;;;;;;4851875;29;20110;-78
2021/08/28 05:11:34;;;;;;;22.67;6.18;;;15.90;99.90;;;;;;4851789;29;20443;-78
2021/08/28 05:14:00;;;;;;;19.05;6.22;;;16.00;99.90;;;;;;4856742;29;20410;-81
2021/08/28 05:16:26;;;;;;;19.20;6.13;;;16.00;99.90;;;;;;4842700;29;20478;-81
2021/08/28 05:18:51;;;;;;;17.60;6.45;;;16.00;99.90;;;;;;4858189;29;20057;-81
2021/08/28 05:21:17;;;;;;;19.48;6.32;;;16.00;99.90;;;;;;4839150;29;20144;-81
2021/08/28 05:23:43;;;;;;;18.10;6.03;;;16.00;99.90;;;;;;4832594;29;20053;-82
2021/08/28 05:26:09;;;;;;;18.23;6.13;;;16.00;99.90;;;;;;4851216;29;20055;-82
2021/08/28 05:28:35;;;;;;;19.00;6.18;;;16.00;99.90;;;;;;4857155;29;20054;-82
2021/08/28 05:31:00;;;;;;;16.67;5.55;;;15.80;99.90;;;;;;4853077;29;20037;-82
2021/08/28 05:33:26;;;;;;;21.02;6.05;;;16.00;99.90;;;;;;4869462;29;20530;-82
2021/08/28 05:35:52;;;;;;;16.75;5.60;;;16.20;99.90;;;;;;4828201;29;20080;-82
2021/08/28 05:38:18;;;;;;;15.18;5.28;;;16.10;99.90;;;;;;4847770;29;20091;-82
2021/08/28 05:40:44;;;;;;;14.93;5.10;;;16.10;99.90;;;;;;4840237;29;20128;-82
2021/08/28 05:43:09;;;;;;;15.52;5.47;;;16.00;99.90;;;;;;4856207;29;20041;-82
2021/08/28 05:45:35;;;;;;;10.80;5.40;;;16.10;99.90;;;;;;4831912;29;20043;-82
2021/08/28 05:48:02;;;;;;;17.35;5.95;;;16.10;99.90;;;;;;4846735;29;20058;-82
2021/08/28 05:50:27;;;;;;;15.40;5.72;;;16.10;99.90;;;;;;4827620;29;20546;-82
2021/08/28 05:52:53;;;;;;;16.60;5.70;;;16.10;99.90;;;;;;4839677;29;20125;-82
2021/08/28 05:55:19;;;;;;;15.98;5.40;;;16.10;99.90;;;;;;4856795;29;20056;-82
2021/08/28 05:57:44;;;;;;;15.82;5.22;;;16.10;99.90;;;;;;4809975;29;20049;-82
2021/08/28 06:00:13;;;;;;;14.15;5.80;;;16.50;99.90;;;;;;4854619;29;20053;-82
2021/08/28 06:02:39;;;;;;;14.48;5.53;;;16.20;99.90;;;;;;4860249;29;20049;-82
2021/08/28 06:05:10;;;;;;;16.98;5.93;;;16.10;99.90;;;;;;4853245;29;20045;-81
2021/08/28 06:07:39;;;;;;;13.05;5.28;;;16.20;99.90;;;;;;4852867;29;20050;-82
2021/08/28 06:10:06;;;;;;;14.35;5.05;;;16.20;99.90;;;;;;4822280;29;20053;-82
2021/08/28 06:12:33;;;;;;;16.30;5.65;;;16.20;99.90;;;;;;4842704;29;20045;-82
2021/08/28 06:14:59;;;;;;;15.20;5.72;;;16.20;99.90;;;;;;4840709;29;20490;-81
2021/08/28 06:17:25;;;;;;;15.60;5.03;;;16.30;99.90;;;;;;4852545;29;20055;-82
2021/08/28 06:19:50;;;;;;;18.48;5.68;;;16.30;99.90;;;;;;4854519;29;20094;-81
2021/08/28 06:22:16;;;;;;;17.55;4.93;;;16.30;99.90;;;;;;4827882;29;20129;-81
2021/08/28 06:24:42;;;;;;;12.98;5.00;;;16.30;99.90;;;;;;4802010;29;20045;-82
2021/08/28 06:27:08;;;;;;;9.77;4.57;;;16.30;99.90;;;;;;4821024;29;20558;-82
2021/08/28 06:29:35;;;;;;;13.43;5.30;;;16.30;99.90;;;;;;4826954;29;20084;-82
2021/08/28 06:32:01;;;;;;;11.70;4.88;;;16.30;99.90;;;;;;4815107;29;20103;-81
2021/08/28 06:34:27;;;;;;;10.82;4.55;;;16.30;99.90;;;;;;4821784;29;20038;-82
2021/08/28 06:36:53;;;;;;;11.23;4.68;;;16.30;99.90;;;;;;4817795;29;20091;-81
2021/08/28 06:39:19;;;;;;;10.25;4.90;;;16.30;99.90;;;;;;4843702;29;20038;-81
2021/08/28 06:41:45;;;;;;;12.73;5.00;;;16.30;99.90;;;;;;4805602;29;20046;-82
2021/08/28 06:44:10;;;;;;;10.30;4.68;;;16.30;99.90;;;;;;4826677;29;20129;-81
2021/08/28 06:46:36;;;;;;;9.95;4.53;;;16.30;99.90;;;;;;4817755;29;20058;-81
2021/08/28 06:49:02;;;;;;;9.40;4.80;;;16.30;99.90;;;;;;4818598;29;20061;-81
2021/08/28 06:51:28;;;;;;;16.08;4.88;;;16.30;99.90;;;;;;4832958;29;20045;-81
2021/08/28 06:53:54;;;;;;;15.85;5.10;;;16.30;99.90;;;;;;4830914;29;20126;-81
2021/08/28 06:56:20;;;;;;;11.20;4.80;;;16.30;99.90;;;;;;4835165;29;20041;-80
2021/08/28 06:58:46;;;;;;;7.90;4.57;;;16.30;99.90;;;;;;4822309;29;20049;-83
2021/08/28 07:01:12;;;;;;;8.75;4.38;;;16.30;99.90;;;;;;4803389;29;20039;-84
2021/08/28 07:03:41;;;;;;;10.38;4.60;;;16.30;99.90;;;;;;4839677;29;20129;-82
2021/08/28 07:06:07;;;;;;;9.50;5.00;;;16.30;99.90;;;;;;4800679;29;20053;-85
2021/08/28 07:08:32;;;;;;;11.45;4.78;;;16.30;99.90;;;;;;4822997;29;20053;-85
2021/08/28 07:10:58;;;;;;;12.20;4.43;;;16.30;99.90;;;;;;4809766;29;20538;-85
2021/08/28 07:13:26;;;;;;;14.38;4.55;;;16.30;99.90;;;;;;4803281;29;20392;-85
2021/08/28 07:15:57;;;;;;;16.02;4.63;;;16.30;99.90;;;;;;4809059;29;20034;-78
2021/08/28 07:18:23;;;;;;;11.57;3.97;;;16.30;99.90;;;;;;4822271;29;20094;-79
2021/08/28 07:20:52;;;;;;;9.82;4.50;;;16.40;99.90;;;;;;4855049;29;20496;-85
2021/08/28 07:23:18;;;;;;;15.80;4.63;;;16.40;99.90;;;;;;4858048;29;20037;-85
2021/08/28 07:25:44;;;;;;;14.38;4.70;;;16.40;99.90;;;;;;4849927;29;20117;-84
2021/08/28 07:28:11;;;;;;;15.35;4.38;;;16.40;99.90;;;;;;4831363;29;20073;-78
2021/08/28 07:30:37;;;;;;;13.80;4.40;;;16.50;99.90;;;;;;4845716;29;20037;-80
2021/08/28 07:33:04;;;;;;;12.40;4.32;;;16.50;99.90;;;;;;4863598;29;20038;-80
2021/08/28 07:35:31;;;;;;;14.20;4.72;;;16.50;99.90;;;;;;4845476;29;20048;-77
2021/08/28 07:37:58;;;;;;;7.45;4.25;;;16.50;99.90;;;;;;4824421;29;20452;-76
2021/08/28 07:40:24;;;;;;;14.50;4.22;;;16.50;99.90;;;;;;4843032;29;20098;-78
2021/08/28 07:42:51;;;;;;;13.63;4.50;;;16.60;99.90;;;;;;4862008;29;20053;-81
2021/08/28 07:45:17;;;;;;;12.75;3.83;;;16.60;99.90;;;;;;4858152;29;20046;-83
2021/08/28 07:47:43;;;;;;;14.95;4.32;;;16.50;99.90;;;;;;4822708;29;20053;-85
2021/08/28 07:50:12;;;;;;;17.45;4.88;;;16.60;99.90;;;;;;4836371;29;20048;-83
2021/08/28 07:52:40;;;;;;;10.73;4.03;;;16.60;99.90;;;;;;4848973;29;20057;-83
2021/08/28 07:55:07;;;;;;;12.55;3.97;;;16.60;99.90;;;;;;4833266;29;20106;-82
2021/08/28 07:57:33;;;;;;;12.45;4.15;;;16.70;99.90;;;;;;4818902;29;20081;-82
2021/08/28 08:00:05;;;;;;;17.13;4.65;;;16.80;99.90;;;;;;4813605;29;20521;-82
2021/08/28 08:02:31;;;;;;;15.00;4.03;;;17.00;99.90;;;;;;4862920;29;20049;-83
2021/08/28 08:04:57;;;;;;;11.15;3.90;;;16.90;99.90;;;;;;4829480;29;20045;-84
2021/08/28 08:07:22;;;;;;;10.48;3.83;;;17.00;99.90;;;;;;4858848;29;20078;-84
2021/08/28 08:09:48;;;;;;;12.07;3.65;;;17.00;99.90;;;;;;4839153;29;20494;-82
2021/08/28 08:12:14;;;;;;;12.65;3.75;;;17.10;99.90;;;;;;4819076;29;20045;-84
2021/08/28 08:14:43;;;;;;;11.77;3.42;;;17.20;99.90;;;;;;4814240;29;20054;-84
2021/08/28 08:17:12;;;;;;;12.07;3.75;;;17.20;99.90;;;;;;4832335;29;20055;-82
2021/08/28 08:19:38;;;;;;;7.55;3.40;;;17.20;99.90;;;;;;4829965;29;20054;-83
2021/08/28 08:22:04;;;;;;;11.48;3.20;;;17.20;99.90;;;;;;4869177;29;20084;-83
2021/08/28 08:24:30;;;;;;;12.73;3.67;;;17.20;99.90;;;;;;4862698;29;20399;-83
2021/08/28 08:26:56;;;;;;;12.60;3.20;;;17.20;99.90;;;;;;4846837;29;20498;-82
2021/08/28 08:29:21;;;;;;;8.70;3.50;;;17.10;99.90;;;;;;4841860;29;20371;-83
2021/08/28 08:31:47;;;;;;;10.68;3.03;;;17.10;99.90;;;;;;4822840;29;20065;-82
2021/08/28 08:34:13;;;;;;;12.93;3.75;;;17.00;99.90;;;;;;4842304;29;20133;-83
2021/08/28 08:36:41;;;;;;;8.52;3.13;;;17.00;99.90;;;;;;4850123;29;20038;-84
2021/08/28 08:39:07;;;;;;;11.88;3.30;;;16.90;99.90;;;;;;4844762;29;20098;-84
2021/08/28 08:41:34;;;;;;;13.43;5.00;;;16.90;99.90;;;;;;4860465;29;20054;-83
2021/08/28 08:44:00;;;;;;;7.40;3.00;;;17.30;99.90;;;;;;4854208;29;20053;-84
2021/08/28 08:46:28;;;;;;;12.60;2.85;;;17.00;99.90;;;;;;4827635;29;20106;-84
2021/08/28 08:48:54;;;;;;;9.23;2.83;;;16.90;99.90;;;;;;4849544;29;20128;-83
2021/08/28 08:51:21;;;;;;;10.68;2.78;;;16.90;99.90;;;;;;4860815;29;20057;-83
2021/08/28 08:53:48;;;;;;;10.25;3.25;;;16.90;99.90;;;;;;4855209;29;20056;-83
2021/08/28 08:56:17;;;;;;;11.05;3.03;;;17.00;99.90;;;;;;4849413;29;20040;-81
2021/08/28 08:58:44;;;;;;;6.57;2.22;;;17.10;99.90;;;;;;4858784;29;20038;-82
2021/08/28 09:01:09;;;;;;;5.82;2.40;;;17.20;99.90;;;;;;4857404;29;20041;-83
2021/08/28 09:03:36;;;;;;;6.80;2.55;;;17.40;99.90;;;;;;4844757;29;20440;-83
2021/08/28 09:06:02;;;;;;;7.68;2.08;;;17.40;99.90;;;;;;4858237;29;20030;-82
2021/08/28 09:08:29;;;;;;;7.03;2.28;;;17.50;99.90;;;;;;4860192;29;20069;-83
2021/08/28 09:10:54;;;;;;;9.40;2.30;;;17.50;99.90;;;;;;4843630;29;20547;-83
2021/08/28 09:13:22;;;;;;;7.97;2.45;;;17.60;99.90;;;;;;4844587;29;20045;-83
2021/08/28 09:16:02;;;;;;;7.55;2.22;;;17.70;99.90;;;;;;4856683;29;20046;-83
2021/08/28 09:18:49;;;;;;;6.13;2.50;;;17.70;99.90;;;;;;4851421;29;20056;-83
2021/08/28 09:21:23;;;;;;;6.45;2.05;;;17.70;99.90;;;;;;4839605;29;20550;-83
2021/08/28 09:23:58;;;;;;;7.00;2.30;;;17.70;99.90;;;;;;4859498;29;20065;-82
2021/08/28 09:26:29;;;;;;;6.70;2.03;;;17.60;99.90;;;;;;4832026;29;20117;-83
2021/08/28 09:28:56;;;;;;;6.35;2.53;;;17.60;99.90;;;;;;4862053;29;20465;-83
2021/08/28 09:31:49;;;;;;;8.88;2.17;;;17.60;99.90;;;;;;4848858;29;20390;-82
2021/08/28 09:34:14;;;;;;;6.32;2.40;;;17.70;99.90;;;;;;4873675;29;20041;-81
2021/08/28 09:36:40;;;;;;;9.90;2.58;;;17.70;99.90;;;;;;4850761;29;20112;-82
2021/08/28 09:39:06;;;;;;;8.68;2.20;;;17.80;99.90;;;;;;4878328;29;20047;-84
2021/08/28 09:41:40;;;;;;;9.05;2.47;;;17.30;99.90;;;;;;4860962;29;20048;-83
2021/08/28 09:44:10;;;;;;;10.82;2.35;;;17.80;99.90;;;;;;4842609;29;20121;-83
2021/08/28 09:46:37;;;;;;;9.40;2.47;;;17.50;99.90;;;;;;4840461;29;20101;-83
2021/08/28 09:49:04;;;;;;;8.80;2.65;;;17.70;99.90;;;;;;4852187;29;20046;-83
2021/08/28 09:51:40;;;;;;;5.05;2.00;;;17.70;99.90;;;;;;4846252;29;20045;-82
2021/08/28 09:54:11;;;;;;;10.77;2.40;;;17.70;99.90;;;;;;4835116;29;20082;-83
2021/08/28 09:56:43;;;;;;;9.25;2.20;;;17.60;99.90;;;;;;4843806;29;20203;-82
2021/08/28 09:59:21;;;;;;;8.45;2.08;;;17.50;99.90;;;;;;4842126;29;20038;-82
2021/08/28 10:01:48;;;;;;;13.35;3.17;;;17.60;99.90;;;;;;4833515;29;20097;-82
2021/08/28 10:04:14;;;;;;;5.07;1.80;;;17.50;99.90;;;;;;4863760;29;20047;-83
2021/08/28 10:06:49;;;;;;;5.25;2.17;;;17.50;99.90;;;;;;4854649;29;20053;-83
2021/08/28 10:09:16;;;;;;;;;;;17.50;99.90;;;;;;4846364;29;20141;-84
2021/08/28 10:11:55;;;;;;;8.88;2.17;;;17.50;99.90;;;;;;4845993;29;20014;-83
2021/08/28 10:14:22;;;;;;;9.45;2.30;;;18.00;99.90;;;;;;4839398;29;20078;-86
2021/08/28 10:16:49;;;;;;;6.72;1.90;;;17.40;99.90;;;;;;4838348;29;20045;-85
2021/08/28 10:19:16;;;;;;;8.05;2.40;;;17.90;99.90;;;;;;4861914;29;20037;-84
2021/08/28 10:21:44;;;;;;;7.30;1.95;;;17.40;99.90;;;;;;4873276;29;20466;-84
2021/08/28 10:24:16;;;;;;;9.15;1.98;;;17.50;99.90;;;;;;4842241;29;20045;-85
2021/08/28 10:26:45;;;;;;;10.05;2.10;;;17.50;99.90;;;;;;4846068;29;20046;-85
2021/08/28 10:29:15;;;;;;;8.38;1.88;;;17.60;99.90;;;;;;4843143;29;20045;-85
2021/08/28 10:31:42;;;;;;;8.13;2.30;;;17.70;99.90;;;;;;4851656;29;20060;-85
2021/08/28 10:34:11;;;;;;;10.02;2.10;;;17.70;99.90;;;;;;4835061;29;20052;-85
2021/08/28 10:36:36;;;;;;;7.45;2.10;;;17.70;99.90;;;;;;4829607;29;20037;-85
2021/08/28 10:39:05;;;;;;;8.20;2.10;;;17.70;99.90;;;;;;4821967;29;20053;-85
2021/08/28 10:41:34;;;;;;;6.15;1.90;;;17.70;99.90;;;;;;4840628;29;20461;-86
2021/08/28 10:44:00;;;;;;;10.40;2.30;;;17.60;99.90;;;;;;4814501;29;20061;-85
2021/08/28 10:46:31;;;;;;;7.97;1.80;;;17.60;99.90;;;;;;4832298;29;20069;-85
2021/08/28 10:49:01;;;;;;;10.00;1.98;;;17.70;99.90;;;;;;4842657;29;20061;-85
2021/08/28 10:51:32;;;;;;;6.07;1.70;;;17.70;99.90;;;;;;4844286;29;20048;-85
2021/08/28 10:54:03;;;;;;;6.18;2.08;;;17.70;99.90;;;;;;4820758;29;20121;-86
2021/08/28 10:56:40;;;;;;;5.15;1.75;;;18.10;99.90;;;;;;4814958;29;20118;-86
2021/08/28 10:59:32;;;;;;;6.57;2.25;;;17.80;99.90;;;;;;4857054;29;20076;-85
2021/08/28 11:02:01;;;;;;;5.45;1.92;;;17.70;99.90;;;;;;4863073;29;20088;-86
2021/08/28 11:05:15;;;;;;;7.53;1.98;;;17.70;99.90;;;;;;4843725;29;20050;-85
2021/08/28 11:07:42;;;;;;;8.50;2.20;;;17.80;99.90;;;;;;4857107;29;20061;-85
2021/08/28 11:10:14;;;;;;;8.70;1.90;;;17.90;99.90;;;;;;4860272;29;20092;-85
2021/08/28 11:12:59;;;;;;;5.70;1.90;;;17.90;99.90;;;;;;4852839;29;20049;-85
2021/08/28 11:15:29;;;;;;;4.70;1.92;;;18.00;99.90;;;;;;4864365;29;20406;-85
2021/08/28 11:17:57;;;;;;;6.68;2.10;;;18.00;99.90;;;;;;4840361;29;20046;-85
2021/08/28 11:20:43;;;;;;;7.47;1.77;;;18.10;99.90;;;;;;4845403;29;20494;-85
2021/08/28 11:23:19;;;;;;;5.50;2.05;;;18.10;99.90;;;;;;4844228;29;20046;-85
2021/08/28 11:25:58;;;;;;;7.88;1.95;;;18.10;99.90;;;;;;4872092;29;20513;-85
2021/08/28 11:28:43;;;;;;;6.43;1.90;;;18.10;99.90;;;;;;4854598;29;20049;-85
2021/08/28 11:31:13;;;;;;;6.50;1.70;;;18.20;99.90;;;;;;4841382;29;20096;-85
2021/08/28 11:33:39;;;;;;;4.50;1.90;;;18.20;99.90;;;;;;4873228;29;20183;-86
2021/08/28 11:36:07;;;;;;;11.88;2.00;;;18.20;99.90;;;;;;4851792;29;20510;-85
2021/08/28 11:38:41;;;;;;;6.68;2.13;;;18.20;99.90;;;;;;4838190;29;20050;-85
2021/08/28 11:41:11;;;;;;;6.93;2.22;;;18.30;99.90;;;;;;4861850;29;20048;-85
2021/08/28 11:43:41;;;;;;;8.25;1.90;;;18.30;99.90;;;;;;4867438;29;20041;-86
2021/08/28 11:46:08;;;;;;;8.25;1.98;;;18.30;99.90;;;;;;4870929;29;20050;-84
2021/08/28 11:48:43;;;;;;;10.23;2.13;;;18.30;99.90;;;;;;4872810;29;20084;-85
2021/08/28 11:51:18;;;;;;;6.50;1.60;;;18.30;99.90;;;;;;4874457;29;20049;-85
2021/08/28 11:53:54;;;;;;;4.50;1.55;;;18.30;99.90;;;;;;4853372;29;20102;-85
2021/08/28 11:56:24;;;;;;;4.10;1.70;;;18.40;99.90;;;;;;4856005;29;20045;-85
2021/08/28 11:58:50;;;;;;;11.40;2.08;;;18.40;99.90;;;;;;4872498;29;20045;-85
2021/08/28 12:01:47;;;;;;;3.83;1.42;;;18.40;99.90;;;;;;4861027;29;20077;-85
2021/08/28 12:04:16;;;;;;;6.78;1.70;;;18.40;99.90;;;;;;4858486;29;20069;-85
2021/08/28 12:06:43;;;;;;;3.60;1.50;;;18.30;99.90;;;;;;4854570;29;20049;-87
2021/08/28 12:09:11;;;;;;;6.47;1.88;;;18.30;99.90;;;;;;4870963;29;20102;-85
2021/08/28 12:11:44;;;;;;;4.68;1.55;;;18.40;99.90;;;;;;4849459;29;20197;-86
2021/08/28 12:14:10;;;;;;;7.15;1.60;;;18.40;99.90;;;;;;4842960;29;20133;-86
2021/08/28 12:16:38;;;;;;;7.20;1.85;;;18.40;99.90;;;;;;4864798;29;20467;-86
2021/08/28 12:19:20;;;;;;;6.38;1.73;;;18.30;99.90;;;;;;4873760;29;20502;-85
2021/08/28 12:21:56;;;;;;;9.52;1.48;;;18.20;99.90;;;;;;4848097;29;20145;-85
2021/08/28 12:24:25;;;;;;;9.38;1.80;;;18.20;99.90;;;;;;4859922;29;20041;-85
2021/08/28 12:26:53;;;;;;;4.05;1.40;;;18.20;99.90;;;;;;4851016;29;20053;-85
2021/08/28 12:29:26;;;;;;;7.25;2.00;;;18.20;99.90;;;;;;4862707;29;20072;-85
2021/08/28 12:32:01;;;;;;;7.60;1.63;;;18.20;99.90;;;;;;4852089;29;20125;-84
2021/08/28 12:34:32;;;;;;;10.20;2.13;;;18.20;99.90;;;;;;4842530;29;20092;-85
2021/08/28 12:36:59;;;;;;;7.25;1.80;;;18.20;99.90;;;;;;4866051;29;20043;-85
2021/08/28 12:39:25;;;;;;;5.70;1.88;;;18.20;99.90;;;;;;4853602;29;20077;-85
2021/08/28 12:41:51;;;;;;;7.40;1.50;;;18.20;99.90;;;;;;4842123;29;20380;-84
2021/08/28 12:44:18;;;;;;;6.75;1.55;;;18.20;99.90;;;;;;4855045;29;20049;-84
2021/08/28 12:46:49;;;;;;;4.63;1.70;;;18.20;99.90;;;;;;4847795;29;20052;-85
2021/08/28 12:49:21;;;;;;;5.13;1.55;;;18.20;99.90;;;;;;4860604;29;20125;-85